Time;durP1;ratioP1;P1;durP2;ratioP2;P2;SDS_P1;SDS_P2;PMS_P1;PMS_P2;Temp;Humidity;BMP_temperature;BMP_pressure;BME280_temperature;BME280_humidity;BME280_pressure;Samples;Min_cycle;Max_cycle;Signal;HPM_P1;HPM_P2
2022/11/03 00:01:36;;;;;;;14.02;4.53;;;;;;;10.15;83.58;101319.16;6272015;22;20011;-83
2022/11/03 00:04:01;;;;;;;10.77;3.80;;;;;;;10.13;83.87;101305.06;6271343;22;20003;-83
2022/11/03 00:06:26;;;;;;;14.40;3.90;;;;;;;10.18;83.35;101305.72;6273397;22;20334;-83
2022/11/03 00:08:51;;;;;;;12.43;3.78;;;;;;;10.19;83.43;101305.66;6271981;22;20057;-83
2022/11/03 00:11:17;;;;;;;12.25;4.25;;;;;;;10.20;83.43;101299.44;6272189;22;20650;-83
2022/11/03 00:13:43;;;;;;;14.30;4.10;;;;;;;10.20;83.41;101309.22;6272160;22;20003;-82
2022/11/03 00:16:11;;;;;;;12.18;4.18;;;;;;;10.17;83.59;101296.03;6271561;22;20008;-83
2022/11/03 00:18:36;;;;;;;13.05;3.42;;;;;;;10.15;83.81;101303.19;6271288;22;20015;-83
2022/11/03 00:21:08;;;;;;;13.35;4.20;;;;;;;10.15;83.87;101293.41;6272186;22;19999;-82
2022/11/03 00:23:36;;;;;;;13.15;4.05;;;;;;;10.12;83.93;101295.38;6271065;22;20086;-83
2022/11/03 00:26:11;;;;;;;15.55;4.07;;;;;;;10.04;84.23;101293.03;6271133;22;20443;-84
2022/11/03 00:28:38;;;;;;;12.52;4.38;;;;;;;9.95;84.46;101270.34;6272803;22;20081;-83
2022/11/03 00:31:13;;;;;;;11.40;3.83;;;;;;;9.94;84.51;101289.84;6270358;22;20090;-83
2022/11/03 00:33:39;;;;;;;13.82;3.72;;;;;;;9.95;84.67;101291.59;6269637;22;20003;-82
2022/11/03 00:36:06;;;;;;;15.30;3.83;;;;;;;9.95;84.84;101269.47;6271586;22;20003;-83
2022/11/03 00:38:32;;;;;;;14.63;4.22;;;;;;;9.92;85.01;101275.78;6272514;22;20063;-82
2022/11/03 00:40:59;;;;;;;12.43;3.85;;;;;;;9.92;84.98;101275.78;6272097;22;20106;-82
2022/11/03 00:43:26;;;;;;;14.98;3.80;;;;;;;9.92;85.24;101267.78;6269794;22;20035;-83
2022/11/03 00:45:51;;;;;;;13.48;4.55;;;;;;;9.91;85.01;101252.78;6271927;22;20008;-82
2022/11/03 00:48:29;;;;;;;11.43;3.60;;;;;;;9.91;85.04;101242.13;6272923;22;20010;-83
2022/11/03 00:51:05;;;;;;;13.07;3.63;;;;;;;9.96;84.84;101248.13;6272188;22;20030;-83
2022/11/03 00:53:35;;;;;;;13.35;3.72;;;;;;;9.98;84.81;101243.59;6270288;22;20014;-83
2022/11/03 00:56:01;;;;;;;9.70;3.55;;;;;;;10.01;84.57;101236.44;6273426;22;20621;-83
2022/11/03 00:58:27;;;;;;;15.32;4.13;;;;;;;10.02;84.66;101241.66;6272907;22;20004;-82
2022/11/03 01:01:11;;;;;;;12.43;3.63;;;;;;;9.95;84.29;101233.09;6271124;22;19999;-84
2022/11/03 01:03:37;;;;;;;;;;;;;;;9.94;84.17;101231.34;6274019;22;20020;-82
2022/11/03 01:08:53;;;;;;;9.90;3.20;;;;;;;9.97;84.58;101220.59;6271602;22;20403;-83
2022/11/03 01:14:06;;;;;;;12.90;3.03;;;;;;;10.02;84.53;101224.84;6272268;22;20069;-83
2022/11/03 01:16:32;;;;;;;11.82;3.70;;;;;;;9.97;84.50;101223.25;6272614;22;20008;-83
2022/11/03 01:18:58;;;;;;;12.65;4.13;;;;;;;10.08;84.09;101214.84;6270765;22;20004;-82
2022/11/03 01:21:23;;;;;;;11.93;3.70;;;;;;;10.11;83.99;101209.34;6270311;22;20019;-83
2022/11/03 01:23:49;;;;;;;10.60;3.70;;;;;;;10.16;83.66;101212.72;6272222;22;20037;-83
2022/11/03 01:26:14;;;;;;;13.52;4.03;;;;;;;10.21;83.69;101204.53;6275577;22;20436;-83
2022/11/03 01:28:42;;;;;;;13.40;3.58;;;;;;;10.24;83.46;101201.72;6273402;22;20373;-82
2022/11/03 01:31:11;;;;;;;11.10;3.83;;;;;;;10.25;83.65;101197.31;6275384;22;20007;-83
2022/11/03 01:33:38;;;;;;;14.32;4.00;;;;;;;10.24;83.43;101196.38;6271640;22;20101;-82
2022/11/03 01:36:03;;;;;;;10.20;2.92;;;;;;;10.27;83.32;101192.78;6272404;22;19988;-82
2022/11/03 01:38:33;;;;;;;11.60;3.80;;;;;;;10.28;83.39;101186.50;6272147;22;20120;-83
2022/11/03 01:41:00;;;;;;;12.77;3.55;;;;;;;10.28;83.29;101186.50;6298872;22;20000;-82
2022/11/03 01:43:28;;;;;;;11.05;3.60;;;;;;;10.37;83.00;101176.34;6272039;22;20034;-82
2022/11/03 01:46:05;;;;;;;11.73;3.75;;;;;;;10.37;82.70;101170.16;6274288;22;20027;-83
2022/11/03 01:48:31;;;;;;;10.75;3.67;;;;;;;10.37;82.87;101162.19;6275445;22;20043;-83
2022/11/03 01:50:57;;;;;;;14.13;4.20;;;;;;;10.35;82.97;101159.56;6274784;22;20004;-83
2022/11/03 01:53:22;;;;;;;11.38;4.07;;;;;;;10.35;82.94;101151.59;6273582;22;20079;-83
2022/11/03 01:55:49;;;;;;;11.57;3.60;;;;;;;10.39;83.02;101147.84;6272864;22;20008;-83
2022/11/03 01:58:27;;;;;;;12.65;3.92;;;;;;;10.36;83.12;101147.13;6273940;22;20083;-82
2022/11/03 02:00:54;;;;;;;13.48;3.78;;;;;;;10.35;83.27;101146.28;6273301;22;20011;-83
2022/11/03 02:03:21;;;;;;;11.10;3.33;;;;;;;10.37;83.16;101143.56;6272698;22;20043;-83
2022/11/03 02:05:48;;;;;;;14.40;4.05;;;;;;;10.37;83.27;101149.75;6274267;22;20069;-84
2022/11/03 02:08:18;;;;;;;14.55;3.75;;;;;;;10.37;83.43;101141.75;6271886;22;20057;-83
2022/11/03 02:10:46;;;;;;;9.48;3.35;;;;;;;10.36;83.30;101145.31;6275394;22;20145;-84
2022/11/03 02:13:19;;;;;;;11.38;3.72;;;;;;;10.39;83.17;101136.34;6271775;22;20007;-83
2022/11/03 02:15:49;;;;;;;12.77;3.92;;;;;;;10.36;83.38;101131.16;6271477;22;20015;-83
2022/11/03 02:18:17;;;;;;;10.20;3.75;;;;;;;10.40;83.47;101128.28;6273790;22;20508;-82
2022/11/03 02:20:44;;;;;;;11.18;3.75;;;;;;;10.37;83.62;101125.78;6272680;22;20010;-83
2022/11/03 02:23:19;;;;;;;11.20;3.30;;;;;;;10.40;83.50;101128.28;6269456;22;19991;-83
2022/11/03 02:25:56;;;;;;;11.93;3.55;;;;;;;10.37;83.77;101127.59;6271402;22;20014;-82
2022/11/03 02:28:24;;;;;;;12.63;3.63;;;;;;;10.35;83.86;101122.31;6272413;22;20018;-83
2022/11/03 02:30:53;;;;;;;11.43;3.42;;;;;;;10.39;84.06;101115.06;6272235;22;20004;-83
2022/11/03 02:33:29;;;;;;;11.65;3.55;;;;;;;10.36;84.19;101116.06;6272328;22;20076;-82
2022/11/03 02:36:11;;;;;;;12.00;3.72;;;;;;;10.40;83.94;101107.00;6270936;22;20000;-83
2022/11/03 02:38:47;;;;;;;10.88;3.40;;;;;;;10.42;84.09;101104.28;6273430;22;20004;-83
2022/11/03 02:41:15;;;;;;;8.95;3.65;;;;;;;10.38;84.17;101098.25;6271347;22;20057;-84
2022/11/03 02:43:42;;;;;;;10.32;3.47;;;;;;;10.45;83.82;101096.19;6271648;22;20397;-82
2022/11/03 02:46:08;;;;;;;13.73;4.90;;;;;;;10.39;84.39;101073.34;6273049;22;20015;-81
2022/11/03 02:48:33;;;;;;;9.85;3.45;;;;;;;10.42;84.58;101078.53;6273735;22;20003;-83
2022/11/03 02:50:58;;;;;;;13.80;3.88;;;;;;;10.41;84.72;101083.94;6269122;22;20010;-83
2022/11/03 02:53:27;;;;;;;11.50;3.58;;;;;;;10.43;84.60;101082.91;6272530;22;20003;-82
2022/11/03 02:56:14;;;;;;;12.50;3.80;;;;;;;10.49;84.36;101084.41;6273978;22;20082;-83
2022/11/03 02:58:56;;;;;;;11.07;3.88;;;;;;;10.49;84.62;101079.09;6273095;22;20014;-83
2022/11/03 03:01:33;;;;;;;12.73;3.58;;;;;;;10.51;84.63;101073.72;6272438;22;20019;-83
2022/11/03 03:04:07;;;;;;;12.35;3.70;;;;;;;10.52;84.38;101062.13;6272641;22;20027;-83
2022/11/03 03:06:44;;;;;;;14.63;4.00;;;;;;;10.55;84.64;101068.19;6272260;22;20078;-83
2022/11/03 03:09:18;;;;;;;12.60;3.83;;;;;;;10.57;84.65;101060.97;6272215;22;20027;-83
2022/11/03 03:11:45;;;;;;;12.27;4.05;;;;;;;10.56;84.63;101045.94;6271729;22;20023;-82
2022/11/03 03:14:26;;;;;;;12.98;3.70;;;;;;;10.56;84.87;101056.59;6272241;22;20022;-81
2022/11/03 03:16:54;;;;;;;14.00;4.18;;;;;;;10.59;84.86;101045.81;6271835;22;20057;-83
2022/11/03 03:19:35;;;;;;;9.63;3.30;;;;;;;10.64;84.60;101045.59;6272014;22;20038;-83
2022/11/03 03:22:09;;;;;;;9.70;3.42;;;;;;;10.58;84.77;101041.44;6271271;22;20007;-82
2022/11/03 03:24:47;;;;;;;9.50;3.22;;;;;;;10.57;85.13;101038.81;6271585;22;20055;-83
2022/11/03 03:27:16;;;;;;;9.82;3.38;;;;;;;10.56;84.90;101039.75;6270045;22;20014;-83
2022/11/03 03:29:49;;;;;;;8.85;3.90;;;;;;;10.61;85.06;101032.41;6272131;22;19999;-82
2022/11/03 03:32:19;;;;;;;10.20;3.17;;;;;;;10.58;84.93;101024.59;6271303;22;20065;-81
2022/11/03 03:34:48;;;;;;;10.85;4.30;;;;;;;10.57;85.21;101025.50;6270847;22;20003;-83
2022/11/03 03:37:16;;;;;;;12.50;3.47;;;;;;;10.57;85.32;101029.03;6270711;22;20008;-82
2022/11/03 03:39:47;;;;;;;10.00;3.60;;;;;;;10.61;85.29;101022.63;6272097;22;20008;-83
2022/11/03 03:42:14;;;;;;;9.23;3.05;;;;;;;10.58;85.57;101019.28;6270841;22;20030;-82
2022/11/03 03:44:41;;;;;;;9.13;2.78;;;;;;;10.59;85.66;101013.88;6272248;22;20003;-82
2022/11/03 03:47:16;;;;;;;9.32;3.10;;;;;;;10.62;85.74;101010.22;6272255;22;20011;-83
2022/11/03 03:49:42;;;;;;;9.68;3.55;;;;;;;10.60;85.65;101010.25;6272684;22;20452;-82
2022/11/03 03:52:08;;;;;;;10.90;3.20;;;;;;;10.60;85.83;101012.94;6270718;22;20010;-83
2022/11/03 03:54:33;;;;;;;9.35;3.40;;;;;;;10.61;86.01;101013.78;6273839;22;20015;-83
2022/11/03 03:57:04;;;;;;;9.60;3.67;;;;;;;10.53;86.45;101000.84;6275284;22;20011;-83
2022/11/03 03:59:30;;;;;;;8.00;3.65;;;;;;;10.50;86.53;100989.50;6272180;22;20318;-82
2022/11/03 04:01:55;;;;;;;9.52;3.33;;;;;;;10.49;86.81;100988.63;6274191;22;20042;-82
2022/11/03 04:04:21;;;;;;;10.52;3.33;;;;;;;10.48;87.04;100990.41;6275530;22;20019;-83
2022/11/03 04:06:46;;;;;;;11.23;3.22;;;;;;;10.47;87.03;100994.03;6275421;22;20010;-83
2022/11/03 04:09:12;;;;;;;8.98;3.50;;;;;;;10.48;87.30;100998.41;6276484;22;20006;-82
2022/11/03 04:22:41;;;;;;;;;;;;;;;10.45;86.99;100985.28;6274069;22;20046;-83
2022/11/03 04:25:07;;;;;;;10.93;3.40;;;;;;;10.45;88.16;100984.41;6271740;22;19903;-83
2022/11/03 04:27:34;;;;;;;9.63;3.33;;;;;;;10.47;88.40;100974.53;6273351;22;20266;-83
2022/11/03 04:30:14;;;;;;;11.48;3.45;;;;;;;10.52;88.93;100982.31;6271741;22;20103;-83
2022/11/03 04:32:40;;;;;;;8.40;3.42;;;;;;;10.51;88.80;100960.16;6271718;22;20085;-82
2022/11/03 04:35:26;;;;;;;10.93;4.05;;;;;;;10.50;88.32;100968.22;6271316;22;20000;-82
2022/11/03 04:38:02;;;;;;;10.60;3.75;;;;;;;10.46;88.94;100941.75;6272138;22;20008;-82
2022/11/03 04:40:28;;;;;;;10.60;3.65;;;;;;;10.51;89.18;100948.66;6271384;22;20000;-83
2022/11/03 04:42:54;;;;;;;11.73;3.58;;;;;;;10.46;89.32;100951.53;6272061;22;20003;-82
2022/11/03 04:45:29;;;;;;;7.63;3.13;;;;;;;10.47;89.61;100946.13;6296268;22;20012;-83
2022/11/03 04:47:57;;;;;;;9.07;3.03;;;;;;;10.48;89.78;100952.31;6271705;22;20011;-82
2022/11/03 04:50:23;;;;;;;12.00;3.78;;;;;;;10.47;89.99;100943.47;6270170;22;20003;-83
2022/11/03 04:52:54;;;;;;;10.68;3.33;;;;;;;10.48;90.32;100945.19;6271057;22;20085;-83
2022/11/03 04:55:19;;;;;;;9.35;3.50;;;;;;;10.44;90.29;100942.75;6271974;22;20003;-83
2022/11/03 04:57:45;;;;;;;13.82;4.30;;;;;;;10.46;90.51;100936.44;6272179;22;20014;-82
2022/11/03 05:00:18;;;;;;;11.65;3.33;;;;;;;10.48;90.55;100934.53;6295652;22;20006;-83
2022/11/03 05:02:45;;;;;;;;;;;;;;;10.42;89.60;100926.00;6274182;22;20377;-82
2022/11/03 05:05:17;;;;;;;9.73;3.53;;;;;;;10.43;90.81;100927.72;6273628;22;19935;-82
2022/11/03 05:07:42;;;;;;;10.23;3.45;;;;;;;10.44;91.07;100919.66;6272274;22;20008;-82
2022/11/03 05:10:14;;;;;;;10.98;3.83;;;;;;;10.42;91.46;100921.53;6273220;22;20007;-82
2022/11/03 05:12:39;;;;;;;13.68;3.78;;;;;;;10.42;91.62;100912.72;6272601;22;20026;-82
2022/11/03 05:15:21;;;;;;;13.60;3.55;;;;;;;10.51;91.84;100919.38;6272672;22;20429;-82
2022/11/03 05:17:47;;;;;;;8.77;3.25;;;;;;;10.46;91.76;100915.13;6270980;22;20065;-83
2022/11/03 05:20:29;;;;;;;11.60;4.03;;;;;;;10.45;91.97;100907.25;6269870;22;20007;-82
2022/11/03 05:22:54;;;;;;;10.95;3.53;;;;;;;10.49;92.24;100914.09;6271100;22;20027;-83
2022/11/03 05:25:35;;;;;;;14.30;3.90;;;;;;;10.46;92.27;100893.00;6270599;22;20030;-83
2022/11/03 05:28:00;;;;;;;9.27;3.47;;;;;;;10.43;92.71;100888.66;6270564;22;20404;-83
2022/11/03 05:30:26;;;;;;;9.73;3.60;;;;;;;10.45;93.08;100888.63;6268982;22;20075;-83
2022/11/03 05:32:51;;;;;;;10.63;3.85;;;;;;;10.42;93.09;100880.78;6270386;22;20011;-82
2022/11/03 05:35:21;;;;;;;11.25;3.85;;;;;;;10.41;93.25;100889.69;6271764;22;20004;-83
2022/11/03 05:37:49;;;;;;;13.35;3.67;;;;;;;10.36;93.75;100876.59;6271505;22;19999;-83
2022/11/03 05:40:25;;;;;;;10.73;3.53;;;;;;;10.40;93.62;100880.84;6271375;22;20410;-82
2022/11/03 05:42:55;;;;;;;10.35;3.58;;;;;;;10.39;93.45;100875.59;6272022;22;20094;-82
2022/11/03 05:45:31;;;;;;;9.95;3.88;;;;;;;10.36;93.83;100862.44;6270653;22;20046;-83
2022/11/03 05:47:57;;;;;;;10.82;4.03;;;;;;;10.40;93.93;100872.84;6269992;22;20008;-83
2022/11/03 05:50:32;;;;;;;10.75;4.03;;;;;;;10.44;93.87;100868.25;6269733;22;20074;-82
2022/11/03 05:53:02;;;;;;;11.73;3.95;;;;;;;10.46;93.71;100861.06;6271092;22;20462;-83
2022/11/03 05:55:32;;;;;;;9.98;3.80;;;;;;;10.48;93.71;100857.38;6270530;22;20418;-83
2022/11/03 05:58:03;;;;;;;11.27;4.15;;;;;;;10.48;93.84;100856.50;6272187;22;20038;-82
2022/11/03 06:00:38;;;;;;;10.70;4.10;;;;;;;10.47;93.52;100849.47;6271013;22;20003;-83
2022/11/03 06:03:04;;;;;;;10.20;3.88;;;;;;;10.51;93.74;100852.84;6270016;22;20016;-82
2022/11/03 06:05:30;;;;;;;13.70;4.05;;;;;;;10.55;93.50;100851.75;6296329;22;20011;-83
2022/11/03 06:08:00;;;;;;;10.20;3.70;;;;;;;10.56;93.48;100848.16;6271601;22;20003;-82
2022/11/03 06:10:30;;;;;;;9.65;3.90;;;;;;;10.56;93.48;100843.69;6271622;22;20307;-83
2022/11/03 06:13:20;;;;;;;8.60;3.55;;;;;;;10.52;93.27;100834.13;6271705;22;20004;-84
2022/11/03 06:15:48;;;;;;;11.55;4.10;;;;;;;10.52;93.45;100826.13;6270979;22;20023;-82
2022/11/03 06:18:28;;;;;;;16.38;4.60;;;;;;;10.47;93.56;100823.72;6270520;22;20084;-81
2022/11/03 06:20:57;;;;;;;12.02;3.88;;;;;;;10.43;93.75;100822.16;6269804;22;20425;-83
2022/11/03 06:23:23;;;;;;;9.60;3.97;;;;;;;10.44;93.67;100818.53;6272703;22;20007;-83
2022/11/03 06:25:51;;;;;;;11.63;3.67;;;;;;;10.45;93.66;100816.78;6270176;22;20004;-83
2022/11/03 06:28:24;;;;;;;11.32;3.88;;;;;;;10.46;93.59;100813.16;6273163;22;20007;-83
2022/11/03 06:30:49;;;;;;;9.13;3.47;;;;;;;10.46;93.79;100805.19;6274106;22;20053;-83
2022/11/03 06:33:20;;;;;;;12.25;4.18;;;;;;;10.43;93.62;100813.31;6273345;22;20238;-83
2022/11/03 06:35:47;;;;;;;15.25;4.10;;;;;;;10.42;93.72;100803.63;6273403;22;20040;-82
2022/11/03 06:38:22;;;;;;;9.57;3.55;;;;;;;10.44;93.72;100805.22;6273894;22;20004;-82
2022/11/03 06:40:50;;;;;;;13.07;4.03;;;;;;;10.39;93.98;100801.94;6275003;22;20449;-81
2022/11/03 06:43:19;;;;;;;13.93;3.97;;;;;;;10.40;94.22;100802.81;6274437;22;20010;-82
2022/11/03 06:45:53;;;;;;;10.73;3.88;;;;;;;10.40;94.18;100802.81;6268211;22;20421;-81
2022/11/03 06:48:23;;;;;;;11.13;3.83;;;;;;;10.37;94.30;100801.19;6271276;22;20087;-82
2022/11/03 06:50:48;;;;;;;8.88;3.30;;;;;;;10.39;94.20;100801.94;6270567;22;20311;-82
2022/11/03 06:53:20;;;;;;;9.60;3.45;;;;;;;10.39;94.24;100801.94;6272822;22;20019;-80
2022/11/03 06:55:48;;;;;;;8.88;3.47;;;;;;;10.34;94.21;100793.34;6271987;22;20079;-81
2022/11/03 06:58:20;;;;;;;11.48;3.80;;;;;;;10.35;94.34;100796.88;6272343;22;20086;-81
2022/11/03 07:00:45;;;;;;;12.63;4.32;;;;;;;10.36;94.55;100798.59;6270350;22;20445;-81
2022/11/03 07:03:23;;;;;;;13.25;3.90;;;;;;;10.38;94.46;100794.06;6270088;22;20011;-82
2022/11/03 07:05:48;;;;;;;9.25;3.90;;;;;;;10.37;94.35;100798.53;6273667;22;20011;-83
2022/11/03 07:08:23;;;;;;;12.05;4.57;;;;;;;10.41;94.28;100797.44;6272910;22;19999;-82
2022/11/03 07:10:56;;;;;;;11.38;4.30;;;;;;;10.44;94.06;100794.59;6272094;22;20217;-83
2022/11/03 07:13:23;;;;;;;11.50;4.00;;;;;;;10.47;93.88;100788.25;6272350;22;20006;-83
2022/11/03 07:15:50;;;;;;;10.07;3.83;;;;;;;10.51;93.76;100789.84;6271969;22;20016;-82
2022/11/03 07:18:28;;;;;;;11.85;3.88;;;;;;;10.55;93.24;100779.91;6271059;22;20014;-81
2022/11/03 07:20:54;;;;;;;10.90;3.60;;;;;;;10.56;92.86;100777.13;6272977;22;20004;-82
2022/11/03 07:23:27;;;;;;;8.75;3.60;;;;;;;10.63;92.74;100777.69;6271488;22;20018;-82
2022/11/03 07:25:58;;;;;;;14.43;3.90;;;;;;;10.63;92.58;100761.72;6270788;22;20078;-81
2022/11/03 07:28:30;;;;;;;11.10;3.67;;;;;;;10.68;91.94;100771.19;6272198;22;20003;-83
2022/11/03 07:30:55;;;;;;;10.82;4.22;;;;;;;10.76;92.02;100762.78;6268966;22;20008;-82
2022/11/03 07:33:25;;;;;;;10.07;3.47;;;;;;;10.79;91.56;100762.63;6271846;22;20010;-82
2022/11/03 07:35:51;;;;;;;10.98;3.85;;;;;;;10.81;91.08;100743.91;6272233;22;20087;-82
2022/11/03 07:38:22;;;;;;;9.70;3.33;;;;;;;10.86;91.10;100752.50;6271007;22;20436;-81
2022/11/03 07:40:50;;;;;;;12.02;3.85;;;;;;;10.84;90.42;100749.94;6271045;22;20078;-81
2022/11/03 07:43:23;;;;;;;11.38;3.20;;;;;;;10.89;90.83;100749.69;6270605;22;19999;-82
2022/11/03 07:45:51;;;;;;;12.07;3.60;;;;;;;10.95;90.62;100763.56;6271041;22;19999;-82
2022/11/03 07:48:39;;;;;;;8.80;3.83;;;;;;;11.00;90.25;100759.78;6267782;22;20342;-82
2022/11/03 07:51:18;;;;;;;10.35;3.53;;;;;;;11.04;90.17;100762.19;6268211;22;20011;-81
2022/11/03 07:53:57;;;;;;;13.45;3.42;;;;;;;11.10;89.68;100760.97;6271792;22;20018;-82
2022/11/03 07:56:27;;;;;;;8.73;2.97;;;;;;;11.14;89.26;100763.41;6272098;22;20003;-82
2022/11/03 07:59:21;;;;;;;11.65;3.10;;;;;;;11.18;89.31;100758.78;6272243;22;19999;-81
2022/11/03 08:01:57;;;;;;;8.77;3.28;;;;;;;11.20;88.80;100760.41;6272843;22;20015;-82
2022/11/03 08:04:29;;;;;;;10.25;3.35;;;;;;;11.22;88.74;100757.66;6273560;22;20007;-79
2022/11/03 08:06:54;;;;;;;11.07;4.13;;;;;;;11.27;88.69;100760.91;6276232;22;20003;-81
2022/11/03 08:09:20;;;;;;;12.57;3.55;;;;;;;11.27;88.43;100758.25;6272128;22;20007;-82
2022/11/03 08:11:46;;;;;;;9.50;3.50;;;;;;;11.31;88.35;100738.50;6271272;22;20004;-82
2022/11/03 08:14:12;;;;;;;9.63;3.65;;;;;;;11.34;88.07;100741.00;6271269;22;20007;-81
2022/11/03 08:16:38;;;;;;;7.97;3.47;;;;;;;11.35;87.93;100734.72;6271127;22;20019;-82
2022/11/03 08:19:03;;;;;;;9.35;3.55;;;;;;;11.40;88.10;100731.78;6269796;22;20424;-82
2022/11/03 08:21:29;;;;;;;7.47;3.72;;;;;;;11.44;87.60;100726.19;6271110;22;20015;-81
2022/11/03 08:23:54;;;;;;;10.32;3.20;;;;;;;11.50;87.37;100718.81;6270612;22;19999;-81
2022/11/03 08:26:20;;;;;;;9.13;3.35;;;;;;;11.56;87.01;100710.47;6272005;22;20008;-81
2022/11/03 08:28:45;;;;;;;11.75;3.30;;;;;;;11.64;86.61;100702.88;6272154;22;20014;-81
2022/11/03 08:31:10;;;;;;;13.95;4.13;;;;;;;11.69;86.57;100695.47;6270570;22;20000;-81
2022/11/03 08:33:36;;;;;;;9.57;3.28;;;;;;;11.71;86.10;100688.28;6273073;22;20256;-82
2022/11/03 08:36:03;;;;;;;9.18;3.28;;;;;;;11.78;85.58;100689.59;6271318;22;20053;-81
2022/11/03 08:38:28;;;;;;;14.90;3.70;;;;;;;11.84;85.22;100681.28;6270843;22;20010;-82
2022/11/03 08:40:54;;;;;;;11.43;4.15;;;;;;;11.89;84.90;100673.03;6271718;22;19999;-82
2022/11/03 08:43:20;;;;;;;9.27;3.45;;;;;;;11.98;84.05;100668.94;6271863;22;20014;-81
2022/11/03 08:45:45;;;;;;;16.23;3.40;;;;;;;12.02;84.19;100657.16;6270828;22;20031;-80
2022/11/03 08:48:11;;;;;;;9.45;3.42;;;;;;;12.10;83.74;100647.72;6270997;22;20485;-82
2022/11/03 08:50:37;;;;;;;11.85;3.95;;;;;;;12.16;83.59;100633.16;6270687;22;20008;-82
2022/11/03 08:53:02;;;;;;;9.15;3.17;;;;;;;12.21;83.04;100633.75;6268943;22;20035;-82
2022/11/03 08:55:27;;;;;;;8.80;3.17;;;;;;;12.23;82.94;100637.16;6270594;22;19999;-81
2022/11/03 08:57:52;;;;;;;14.93;3.40;;;;;;;12.30;82.65;100619.84;6272177;22;20003;-82
2022/11/03 09:00:18;;;;;;;13.07;3.63;;;;;;;12.35;82.41;100623.06;6269777;22;20712;-83
2022/11/03 09:02:44;;;;;;;12.85;3.55;;;;;;;12.37;82.23;100614.97;6270810;22;20099;-83
2022/11/03 09:05:11;;;;;;;7.93;3.08;;;;;;;12.44;81.94;100616.31;6271663;22;20030;-82
2022/11/03 09:07:37;;;;;;;8.07;2.85;;;;;;;12.54;81.52;100597.91;6271056;22;20494;-84
2022/11/03 09:10:03;;;;;;;13.98;3.40;;;;;;;12.64;80.95;100596.38;6267291;22;20030;-81
2022/11/03 09:12:28;;;;;;;9.73;3.53;;;;;;;12.79;80.08;100584.72;6271721;22;20020;-83
2022/11/03 09:14:54;;;;;;;10.35;3.30;;;;;;;12.90;79.81;100576.00;6271683;22;20004;-83
2022/11/03 09:17:19;;;;;;;10.55;3.20;;;;;;;12.98;79.40;100564.84;6269399;22;20007;-83
2022/11/03 09:19:44;;;;;;;8.05;3.15;;;;;;;13.09;78.76;100562.31;6270886;22;20096;-82
2022/11/03 09:22:09;;;;;;;8.13;2.90;;;;;;;13.18;77.98;100559.03;6271004;22;20086;-83
2022/11/03 09:24:35;;;;;;;10.05;3.40;;;;;;;13.21;77.88;100551.69;6272386;22;20007;-84
2022/11/03 09:27:00;;;;;;;9.25;2.92;;;;;;;13.26;76.93;100538.03;6271581;22;20421;-83
2022/11/03 09:29:25;;;;;;;7.70;2.78;;;;;;;13.28;77.27;100530.75;6268623;22;20321;-83
2022/11/03 09:31:51;;;;;;;8.75;3.03;;;;;;;13.24;77.12;100526.56;6271834;22;19988;-84
2022/11/03 09:34:16;;;;;;;8.70;2.75;;;;;;;13.21;77.25;100521.44;6271896;22;20015;-83
2022/11/03 09:36:41;;;;;;;11.30;3.25;;;;;;;13.18;77.03;100530.50;6271178;22;20007;-84
2022/11/03 09:39:07;;;;;;;11.15;3.00;;;;;;;13.15;77.34;100516.47;6270993;22;20031;-83
2022/11/03 09:41:33;;;;;;;9.27;3.05;;;;;;;13.08;76.96;100521.34;6272028;22;19999;-83
2022/11/03 09:43:59;;;;;;;11.32;3.25;;;;;;;13.04;77.31;100519.00;6272868;22;20011;-82
2022/11/03 09:46:27;;;;;;;8.23;3.13;;;;;;;12.99;77.10;100513.97;6272697;22;20004;-83
2022/11/03 09:48:53;;;;;;;9.05;3.08;;;;;;;12.96;77.19;100501.69;6272030;22;20007;-84
2022/11/03 09:51:20;;;;;;;8.25;2.80;;;;;;;12.88;77.46;100505.81;6271199;22;20000;-83
2022/11/03 09:53:47;;;;;;;11.13;3.15;;;;;;;12.84;77.81;100489.13;6271417;22;20004;-81
2022/11/03 09:56:12;;;;;;;10.55;3.00;;;;;;;12.87;77.71;100486.22;6271246;22;20826;-83
2022/11/03 09:58:39;;;;;;;9.27;3.10;;;;;;;12.87;77.77;100483.56;6267942;22;20012;-83
2022/11/03 10:01:05;;;;;;;8.98;3.20;;;;;;;12.82;77.80;100472.34;6270934;22;20008;-83
2022/11/03 10:03:30;;;;;;;12.95;2.85;;;;;;;12.83;77.63;100473.19;6274316;22;20016;-83
2022/11/03 10:05:56;;;;;;;9.95;2.72;;;;;;;12.79;78.07;100466.34;6273621;22;20038;-83
2022/11/03 10:08:25;;;;;;;6.55;2.70;;;;;;;12.75;77.92;100471.06;6273064;22;20008;-83
2022/11/03 10:10:51;;;;;;;8.25;2.97;;;;;;;12.70;77.71;100455.31;6273672;22;20037;-84
2022/11/03 10:13:25;;;;;;;9.00;2.80;;;;;;;12.71;77.69;100454.38;6272343;22;20003;-84
2022/11/03 10:15:52;;;;;;;7.72;2.80;;;;;;;12.68;78.03;100441.22;6273340;22;20090;-84
2022/11/03 10:18:17;;;;;;;9.10;3.17;;;;;;;12.73;77.93;100443.56;6272703;22;20042;-84
2022/11/03 10:20:43;;;;;;;9.95;2.90;;;;;;;12.74;77.51;100447.09;6274421;22;20000;-83
2022/11/03 10:23:09;;;;;;;11.98;3.65;;;;;;;12.76;78.37;100438.03;6273428;22;20007;-83
2022/11/03 10:25:41;;;;;;;11.00;3.30;;;;;;;12.80;77.69;100428.88;6273057;22;19999;-83
2022/11/03 10:28:09;;;;;;;9.48;2.90;;;;;;;12.80;77.46;100430.69;6272324;22;20033;-82
2022/11/03 10:30:47;;;;;;;9.25;3.00;;;;;;;12.80;77.55;100428.00;6272488;22;20000;-82
2022/11/03 10:33:35;;;;;;;10.68;3.00;;;;;;;12.83;77.47;100425.13;6273096;22;20026;-83
2022/11/03 10:36:14;;;;;;;11.05;3.28;;;;;;;12.81;77.38;100424.38;6274327;22;20011;-83
2022/11/03 10:38:40;;;;;;;10.32;3.05;;;;;;;12.81;76.25;100421.72;6272810;22;19999;-83
2022/11/03 10:41:19;;;;;;;7.88;2.85;;;;;;;12.80;76.86;100414.66;6272405;22;20075;-83
2022/11/03 10:43:57;;;;;;;9.25;2.63;;;;;;;12.79;76.92;100416.47;6274250;22;20026;-83
2022/11/03 10:46:23;;;;;;;7.63;3.28;;;;;;;12.81;76.22;100398.53;6272860;22;20075;-83
2022/11/03 10:49:04;;;;;;;7.63;3.08;;;;;;;12.86;75.92;100403.56;6271320;22;20027;-83
2022/11/03 10:51:30;;;;;;;7.28;2.90;;;;;;;12.85;75.91;100393.84;6273509;22;20062;-82
2022/11/03 10:53:56;;;;;;;7.50;3.00;;;;;;;12.96;76.00;100394.81;6274297;22;20451;-83
2022/11/03 10:56:21;;;;;;;6.97;2.88;;;;;;;13.11;75.64;100394.72;6275605;22;20003;-83
2022/11/03 10:58:47;;;;;;;8.43;3.08;;;;;;;13.21;74.84;100398.50;6275120;22;20334;-82
2022/11/03 11:01:12;;;;;;;8.55;3.20;;;;;;;13.31;74.38;100396.06;6275307;22;20011;-83
2022/11/03 11:03:41;;;;;;;7.18;2.60;;;;;;;13.30;74.33;100384.53;6275165;22;20460;-83
2022/11/03 11:06:29;;;;;;;6.35;2.45;;;;;;;13.42;74.32;100385.50;6274477;22;20031;-83
2022/11/03 11:09:04;;;;;;;7.05;2.80;;;;;;;13.58;73.55;100382.56;6282100;22;19996;-83
2022/11/03 11:11:29;;;;;;;7.70;2.80;;;;;;;13.62;73.05;100370.69;6281569;22;20008;-83
2022/11/03 11:14:19;;;;;;;6.40;2.55;;;;;;;13.69;73.14;100369.31;6276421;22;20004;-81
2022/11/03 11:16:56;;;;;;;9.63;3.35;;;;;;;13.70;72.43;100371.00;6278341;22;20091;-83
2022/11/03 11:19:23;;;;;;;6.13;2.78;;;;;;;13.79;71.77;100365.00;6276619;22;20004;-81
2022/11/03 11:21:52;;;;;;;9.05;3.30;;;;;;;13.81;70.95;100364.91;6279236;22;19996;-81
2022/11/03 11:24:41;;;;;;;6.80;2.55;;;;;;;13.90;71.77;100354.38;6281295;22;20083;-82
2022/11/03 11:27:31;;;;;;;7.32;2.83;;;;;;;14.26;71.00;100341.13;6263861;22;20003;-82
2022/11/03 11:30:26;;;;;;;7.32;2.65;;;;;;;14.50;68.60;100341.13;6276073;22;19996;-82
2022/11/03 11:33:12;;;;;;;5.60;2.55;;;;;;;14.61;67.73;100342.00;6273966;22;20004;-82
2022/11/03 11:35:37;;;;;;;8.85;2.55;;;;;;;14.58;67.01;100331.53;6274331;22;20057;-82
2022/11/03 11:38:40;;;;;;;7.43;2.33;;;;;;;14.55;69.23;100331.78;6273054;22;20337;-83
2022/11/03 11:41:05;;;;;;;6.22;2.78;;;;;;;14.35;68.25;100310.97;6273704;22;20008;-82
2022/11/03 11:43:31;;;;;;;6.05;2.83;;;;;;;14.24;68.38;100302.88;6274867;22;20267;-82
2022/11/03 11:46:21;;;;;;;4.72;2.35;;;;;;;14.20;69.58;100296.91;6275164;22;20077;-82
2022/11/03 11:49:14;;;;;;;5.75;2.78;;;;;;;14.17;69.78;100284.63;6272962;22;20150;-83
2022/11/03 11:51:40;;;;;;;6.35;2.63;;;;;;;14.14;68.96;100274.13;6275095;22;20003;-84